Time;durP1;ratioP1;P1;durP2;ratioP2;P2;SDS_P1;SDS_P2;PMS_P1;PMS_P2;Temp;Humidity;BMP_temperature;BMP_pressure;BME280_temperature;BME280_humidity;BME280_pressure;Samples;Min_cycle;Max_cycle;Signal;HPM_P1;HPM_P2
2023/08/13 00:00:37;;;;;;;2.97;2.73;;;26.60;73.10;;;;;;5075784;28;20051;-35
2023/08/13 00:03:04;;;;;;;3.23;2.93;;;26.60;73.10;;;;;;5073507;28;20078;-35
2023/08/13 00:05:30;;;;;;;3.10;2.90;;;26.60;73.20;;;;;;5063851;28;20065;-35
2023/08/13 00:07:56;;;;;;;2.97;2.43;;;26.60;73.20;;;;;;5065592;28;20052;-35
2023/08/13 00:10:22;;;;;;;2.80;2.50;;;26.60;73.30;;;;;;5072699;28;20261;-35
2023/08/13 00:12:48;;;;;;;3.20;2.90;;;26.60;73.30;;;;;;5060796;28;20029;-35
2023/08/13 00:15:15;;;;;;;3.23;2.73;;;26.60;73.30;;;;;;5064275;28;20278;-35
2023/08/13 00:17:41;;;;;;;3.10;2.80;;;26.60;73.40;;;;;;5064922;28;20768;-35
2023/08/13 00:20:08;;;;;;;3.33;2.92;;;26.60;74.20;;;;;;5069420;28;20046;-35
2023/08/13 00:22:34;;;;;;;2.70;2.50;;;26.60;73.50;;;;;;5068982;28;20033;-36
2023/08/13 00:25:01;;;;;;;2.60;2.40;;;26.60;73.60;;;;;;5068629;28;20706;-35
2023/08/13 00:27:27;;;;;;;3.40;3.10;;;26.60;74.40;;;;;;5077451;28;20043;-35
2023/08/13 00:29:53;;;;;;;2.73;2.53;;;26.60;73.60;;;;;;5065579;28;20485;-35
2023/08/13 00:32:19;;;;;;;2.80;2.60;;;26.60;73.70;;;;;;5069910;28;20064;-35
2023/08/13 00:34:45;;;;;;;4.03;2.70;;;26.60;73.80;;;;;;5074714;28;20092;-35
2023/08/13 00:37:11;;;;;;;2.88;2.58;;;26.60;73.70;;;;;;5075670;28;20330;-35
2023/08/13 00:39:37;;;;;;;3.23;2.80;;;26.60;73.70;;;;;;5070005;28;20214;-35
2023/08/13 00:42:04;;;;;;;2.93;2.63;;;26.60;73.70;;;;;;5063373;28;20033;-36
2023/08/13 00:44:30;;;;;;;2.60;2.40;;;26.60;73.70;;;;;;5058176;28;20029;-35
2023/08/13 00:46:56;;;;;;;2.78;2.58;;;26.60;73.70;;;;;;5061492;28;20544;-36
2023/08/13 00:49:23;;;;;;;2.40;2.20;;;26.60;73.80;;;;;;5053979;28;20018;-35
2023/08/13 00:51:50;;;;;;;2.42;2.22;;;26.60;73.80;;;;;;5055133;28;20069;-35
2023/08/13 00:54:16;;;;;;;2.63;2.42;;;26.60;73.70;;;;;;5059444;28;20060;-35
2023/08/13 00:56:42;;;;;;;3.40;2.70;;;26.60;73.80;;;;;;5036402;28;20099;-35
2023/08/13 00:59:08;;;;;;;2.83;2.63;;;26.60;73.80;;;;;;5056533;28;20312;-36
2023/08/13 01:01:35;;;;;;;3.07;2.60;;;26.50;73.80;;;;;;5045733;28;20025;-35
2023/08/13 01:04:01;;;;;;;2.78;2.42;;;26.60;73.90;;;;;;5045033;28;20025;-35
2023/08/13 01:06:39;;;;;;;2.30;2.10;;;26.50;73.90;;;;;;5063346;28;20068;-35
2023/08/13 01:09:19;;;;;;;2.50;2.30;;;26.60;74.00;;;;;;5038340;28;20029;-35
2023/08/13 01:12:07;;;;;;;2.80;2.60;;;26.60;74.00;;;;;;5039972;28;20035;-35
2023/08/13 01:14:44;;;;;;;2.92;2.63;;;26.60;74.00;;;;;;5063420;28;20100;-36
2023/08/13 01:17:10;;;;;;;2.30;2.03;;;26.60;74.10;;;;;;5039376;28;20074;-35
2023/08/13 01:19:37;;;;;;;2.85;2.30;;;26.60;74.10;;;;;;5062856;28;20281;-35
2023/08/13 01:22:03;;;;;;;2.50;2.30;;;26.50;74.00;;;;;;5062393;28;20036;-35
2023/08/13 01:24:29;;;;;;;2.83;2.33;;;26.50;73.90;;;;;;5057612;28;20547;-36
2023/08/13 01:27:32;;;;;;;2.00;1.90;;;26.50;73.90;;;;;;5053318;28;20089;-35
2023/08/13 01:30:15;;;;;;;2.30;2.10;;;26.50;74.00;;;;;;5061662;28;20044;-35
2023/08/13 01:32:47;;;;;;;2.40;2.20;;;26.50;74.00;;;;;;5043919;28;20052;-36
2023/08/13 01:35:13;;;;;;;2.33;2.13;;;26.50;74.00;;;;;;5055585;28;20028;-35
2023/08/13 01:37:39;;;;;;;5.07;2.50;;;26.50;74.10;;;;;;5061840;28;20179;-35
2023/08/13 01:40:06;;;;;;;2.10;2.00;;;26.50;74.10;;;;;;5028443;28;20050;-35
2023/08/13 01:42:35;;;;;;;2.17;1.98;;;26.50;74.10;;;;;;5063041;28;20056;-35
2023/08/13 01:45:01;;;;;;;2.30;2.10;;;26.50;74.20;;;;;;5062038;28;20037;-35
2023/08/13 01:47:27;;;;;;;2.37;2.17;;;26.50;74.20;;;;;;5062820;28;20029;-35
2023/08/13 01:49:53;;;;;;;2.57;2.37;;;26.50;74.40;;;;;;5044415;28;20090;-36
2023/08/13 01:52:19;;;;;;;2.17;1.97;;;26.50;74.40;;;;;;5055649;28;20536;-35
2023/08/13 01:54:46;;;;;;;2.43;2.23;;;26.50;74.40;;;;;;5055102;28;20030;-35
2023/08/13 01:57:12;;;;;;;2.40;2.20;;;26.50;74.40;;;;;;5058270;28;20032;-35
2023/08/13 01:59:38;;;;;;;2.47;1.97;;;26.50;74.30;;;;;;5059644;28;20056;-35
2023/08/13 02:02:04;;;;;;;2.00;1.90;;;26.50;74.40;;;;;;5059592;28;20474;-35
2023/08/13 02:04:30;;;;;;;2.30;2.08;;;26.50;74.20;;;;;;5058508;28;20276;-35
2023/08/13 02:06:56;;;;;;;2.17;2.03;;;26.50;74.20;;;;;;5052824;28;20040;-35
2023/08/13 02:09:22;;;;;;;2.63;2.23;;;26.40;74.00;;;;;;5057387;28;20021;-39
2023/08/13 02:11:49;;;;;;;2.23;2.00;;;26.50;74.00;;;;;;5061128;28;20405;-35
2023/08/13 02:14:15;;;;;;;2.13;2.00;;;26.40;73.80;;;;;;5062305;28;20021;-35
2023/08/13 02:16:41;;;;;;;2.33;2.07;;;26.40;73.80;;;;;;5061106;28;20133;-35
2023/08/13 02:19:07;;;;;;;2.37;2.17;;;26.40;73.80;;;;;;5062214;28;20033;-35
2023/08/13 02:21:33;;;;;;;2.15;1.95;;;26.40;73.80;;;;;;5049018;28;20021;-36
2023/08/13 02:23:59;;;;;;;1.97;1.80;;;26.40;73.70;;;;;;5050222;28;20035;-35
2023/08/13 02:26:45;;;;;;;2.40;2.20;;;26.40;73.70;;;;;;5048482;28;20613;-35
2023/08/13 02:29:12;;;;;;;2.55;1.95;;;26.40;73.70;;;;;;4974890;28;20066;-36
2023/08/13 02:31:38;;;;;;;2.17;1.97;;;26.40;73.70;;;;;;4968742;28;20165;-42
2023/08/13 02:34:04;;;;;;;2.10;1.80;;;26.40;73.80;;;;;;4971122;28;20351;-36
2023/08/13 02:36:30;;;;;;;2.07;1.97;;;26.40;73.90;;;;;;4970003;28;20134;-36
2023/08/13 02:38:58;;;;;;;2.17;1.98;;;26.40;73.70;;;;;;4970213;28;20085;-35
2023/08/13 02:41:25;;;;;;;2.63;1.80;;;26.40;73.80;;;;;;4972401;28;20042;-36
2023/08/13 02:43:55;;;;;;;2.15;1.95;;;26.40;73.80;;;;;;4970880;28;20055;-36
2023/08/13 02:46:22;;;;;;;1.90;1.70;;;26.40;73.90;;;;;;4960631;28;20046;-36
2023/08/13 02:48:49;;;;;;;2.13;1.88;;;26.40;73.80;;;;;;4966276;28;20042;-36
2023/08/13 02:51:15;;;;;;;2.03;1.83;;;26.40;73.80;;;;;;4963534;28;20109;-36
2023/08/13 02:53:41;;;;;;;2.78;2.00;;;26.40;73.90;;;;;;4965444;28;20047;-36
2023/08/13 02:56:08;;;;;;;2.08;1.98;;;26.40;73.90;;;;;;4969100;28;20035;-36
2023/08/13 02:58:34;;;;;;;2.20;1.60;;;26.40;74.40;;;;;;4971954;28;20038;-35
2023/08/13 03:01:00;;;;;;;2.30;2.10;;;26.40;73.90;;;;;;4956986;28;20042;-36
2023/08/13 03:03:27;;;;;;;2.22;2.10;;;26.40;73.90;;;;;;4970543;28;20046;-35
2023/08/13 03:05:53;;;;;;;1.87;1.70;;;26.40;74.50;;;;;;4998600;28;20075;-36
2023/08/13 03:08:19;;;;;;;2.60;1.77;;;26.40;73.90;;;;;;5032262;28;20280;-35
2023/08/13 03:10:46;;;;;;;1.67;1.58;;;26.40;73.70;;;;;;5044286;28;20041;-36
2023/08/13 03:13:12;;;;;;;2.60;1.77;;;26.40;73.80;;;;;;5044482;28;20041;-35
2023/08/13 03:15:58;;;;;;;2.33;2.13;;;26.30;73.70;;;;;;5048257;28;20071;-35
2023/08/13 03:18:24;;;;;;;1.98;1.88;;;26.30;73.80;;;;;;4961860;28;20528;-35
2023/08/13 03:20:51;;;;;;;1.88;1.75;;;26.30;74.00;;;;;;4962061;28;20058;-34
2023/08/13 03:23:17;;;;;;;3.37;2.00;;;26.30;74.30;;;;;;4962022;28;20031;-35
2023/08/13 03:25:43;;;;;;;1.70;1.60;;;26.30;74.50;;;;;;4967616;28;20054;-35
2023/08/13 03:28:09;;;;;;;2.27;2.07;;;26.30;74.60;;;;;;4961424;28;20402;-35
2023/08/13 03:30:35;;;;;;;2.00;1.80;;;26.30;74.60;;;;;;4962035;28;20802;-35
2023/08/13 03:33:02;;;;;;;2.10;2.00;;;26.30;74.60;;;;;;4961423;28;20285;-35
2023/08/13 03:35:28;;;;;;;2.28;2.08;;;26.30;74.70;;;;;;4962401;28;20043;-35
2023/08/13 03:37:54;;;;;;;2.17;1.97;;;26.30;74.70;;;;;;4961452;28;20054;-35
2023/08/13 03:40:20;;;;;;;2.07;1.90;;;26.30;74.50;;;;;;4962397;28;20095;-35
2023/08/13 03:42:46;;;;;;;2.73;2.00;;;26.20;74.50;;;;;;4961608;28;20164;-35
2023/08/13 03:45:12;;;;;;;2.10;1.90;;;26.20;74.20;;;;;;4969399;28;20039;-35
2023/08/13 03:47:39;;;;;;;1.77;1.67;;;26.20;74.20;;;;;;4961602;28;20054;-36
2023/08/13 03:50:05;;;;;;;1.83;1.60;;;26.20;74.10;;;;;;4961401;28;20035;-36
2023/08/13 03:52:31;;;;;;;2.25;2.05;;;26.20;74.00;;;;;;4961624;28;20039;-35
2023/08/13 03:54:57;;;;;;;2.47;1.60;;;26.20;74.10;;;;;;4989633;28;20086;-35
2023/08/13 03:57:23;;;;;;;3.33;2.08;;;26.20;74.00;;;;;;5062582;28;20285;-35
2023/08/13 03:59:50;;;;;;;2.00;1.70;;;26.20;74.00;;;;;;5070599;28;20032;-35
2023/08/13 04:02:16;;;;;;;2.07;1.97;;;26.20;74.00;;;;;;5074920;28;20317;-36
2023/08/13 04:04:42;;;;;;;1.88;1.73;;;26.20;74.00;;;;;;5067655;28;20029;-35
2023/08/13 04:07:08;;;;;;;1.90;1.80;;;26.20;74.20;;;;;;5055404;28;20105;-35
2023/08/13 04:09:34;;;;;;;2.00;1.80;;;26.20;74.40;;;;;;5065270;28;20029;-35
2023/08/13 04:12:00;;;;;;;2.23;1.80;;;26.20;74.30;;;;;;5068770;28;20033;-35
2023/08/13 04:14:26;;;;;;;1.90;1.80;;;26.20;74.50;;;;;;5073943;28;20024;-35
2023/08/13 04:16:53;;;;;;;1.97;1.80;;;26.20;74.60;;;;;;5064716;28;20028;-35
2023/08/13 04:19:19;;;;;;;1.80;1.70;;;26.10;74.60;;;;;;5071489;28;20032;-35
2023/08/13 04:21:45;;;;;;;2.55;1.75;;;26.10;74.60;;;;;;5068377;28;20052;-35
2023/08/13 04:24:11;;;;;;;2.57;1.60;;;26.10;74.80;;;;;;5069061;28;20049;-35
2023/08/13 04:26:37;;;;;;;1.70;1.60;;;26.10;74.60;;;;;;5061598;28;20036;-35
2023/08/13 04:29:03;;;;;;;1.98;1.80;;;26.10;74.50;;;;;;5069367;28;20025;-35
2023/08/13 04:31:29;;;;;;;1.60;1.50;;;26.10;74.30;;;;;;5068442;28;20033;-35
2023/08/13 04:33:56;;;;;;;1.43;1.33;;;26.10;74.30;;;;;;5064177;28;20143;-35
2023/08/13 04:36:22;;;;;;;2.40;1.73;;;26.10;74.40;;;;;;5064416;28;20039;-36
2023/08/13 04:38:48;;;;;;;3.38;2.00;;;26.10;75.00;;;;;;5073455;28;20291;-35
2023/08/13 04:41:14;;;;;;;1.80;1.60;;;26.10;74.30;;;;;;5049794;28;20024;-35
2023/08/13 04:43:40;;;;;;;2.08;1.90;;;26.10;75.00;;;;;;5049062;28;20452;-35
2023/08/13 04:46:06;;;;;;;2.20;1.77;;;26.10;74.20;;;;;;5048249;28;20042;-35
2023/08/13 04:48:42;;;;;;;2.23;1.73;;;26.10;74.30;;;;;;5049109;28;20036;-35
2023/08/13 04:51:09;;;;;;;3.25;1.60;;;26.10;74.30;;;;;;5047827;28;20035;-36
2023/08/13 04:53:35;;;;;;;2.70;1.70;;;26.10;74.40;;;;;;5051085;28;20037;-35
2023/08/13 04:56:01;;;;;;;2.10;1.67;;;26.10;74.50;;;;;;5051002;28;20211;-35
2023/08/13 04:58:27;;;;;;;1.87;1.77;;;26.10;74.70;;;;;;5049946;28;20489;-36
2023/08/13 05:00:53;;;;;;;2.25;1.90;;;26.10;74.70;;;;;;5048632;28;20273;-35
2023/08/13 05:03:20;;;;;;;1.80;1.70;;;26.00;74.80;;;;;;5052177;28;20036;-35
2023/08/13 05:05:46;;;;;;;2.50;1.70;;;26.00;74.70;;;;;;5049506;28;20152;-35
2023/08/13 05:08:12;;;;;;;1.70;1.60;;;26.00;74.70;;;;;;5049201;28;20093;-36
2023/08/13 05:10:38;;;;;;;1.63;1.53;;;26.00;74.80;;;;;;5048716;28;20094;-35
2023/08/13 05:13:04;;;;;;;3.90;1.93;;;26.00;74.60;;;;;;5051208;28;20086;-35
2023/08/13 05:15:50;;;;;;;3.03;1.60;;;26.00;74.60;;;;;;5046729;28;20029;-35
2023/08/13 05:18:17;;;;;;;2.33;1.60;;;26.00;74.60;;;;;;4982741;28;20054;-35
2023/08/13 05:20:43;;;;;;;1.73;1.63;;;26.00;74.60;;;;;;4982999;28;20043;-35
2023/08/13 05:23:09;;;;;;;2.00;1.80;;;26.00;74.60;;;;;;4982749;28;20035;-35
2023/08/13 05:25:38;;;;;;;1.70;1.60;;;26.00;74.60;;;;;;4982232;28;20089;-35
2023/08/13 05:28:07;;;;;;;1.75;1.65;;;25.90;74.60;;;;;;4983029;28;20035;-35
2023/08/13 05:30:35;;;;;;;1.90;1.77;;;26.00;74.70;;;;;;4980173;28;20223;-35
2023/08/13 05:33:02;;;;;;;1.83;1.73;;;25.90;74.60;;;;;;4982507;28;20046;-35
2023/08/13 05:35:28;;;;;;;1.88;1.77;;;25.90;74.60;;;;;;4982890;28;20059;-35
2023/08/13 05:37:54;;;;;;;2.20;1.73;;;25.90;74.70;;;;;;4982486;28;20108;-35
2023/08/13 05:40:20;;;;;;;1.90;1.80;;;25.90;74.80;;;;;;4983083;28;20216;-35
2023/08/13 05:42:47;;;;;;;2.00;1.90;;;25.90;74.80;;;;;;4982182;28;20054;-35
2023/08/13 05:45:13;;;;;;;2.17;1.98;;;25.90;74.80;;;;;;4991132;28;20048;-35
2023/08/13 05:47:39;;;;;;;2.33;2.10;;;25.90;74.90;;;;;;4992183;28;20563;-35
2023/08/13 05:50:05;;;;;;;3.58;1.73;;;25.90;74.80;;;;;;4975859;28;20041;-35
2023/08/13 05:52:31;;;;;;;1.60;1.50;;;25.90;74.90;;;;;;4982878;28;20109;-35
2023/08/13 05:54:58;;;;;;;1.97;1.80;;;25.90;75.00;;;;;;5007524;28;20060;-35
2023/08/13 05:57:24;;;;;;;2.03;1.73;;;25.90;75.00;;;;;;5049437;28;20548;-35
2023/08/13 05:59:50;;;;;;;2.20;2.00;;;25.80;74.80;;;;;;5060018;28;20036;-35
2023/08/13 06:02:16;;;;;;;2.70;1.90;;;25.80;74.90;;;;;;5062238;28;20037;-35
2023/08/13 06:04:42;;;;;;;1.60;1.50;;;25.80;74.90;;;;;;5061781;28;20044;-35
2023/08/13 06:07:09;;;;;;;1.73;1.50;;;25.80;74.80;;;;;;5052256;28;20064;-35
2023/08/13 06:09:35;;;;;;;1.50;1.40;;;25.80;74.80;;;;;;5050920;28;20074;-35
2023/08/13 06:12:01;;;;;;;1.80;1.70;;;25.80;74.90;;;;;;5061011;28;20040;-35
2023/08/13 06:14:27;;;;;;;1.83;1.70;;;25.80;74.90;;;;;;5063528;28;20021;-35
2023/08/13 06:16:53;;;;;;;1.53;1.43;;;25.80;75.20;;;;;;5066088;28;20584;-35
2023/08/13 06:19:19;;;;;;;1.67;1.40;;;25.80;75.10;;;;;;5057152;28;20037;-35
2023/08/13 06:21:46;;;;;;;2.33;1.67;;;25.80;75.00;;;;;;5058940;28;20063;-35
2023/08/13 06:24:12;;;;;;;1.83;1.60;;;25.80;75.10;;;;;;5061909;28;20024;-36
2023/08/13 06:26:38;;;;;;;1.80;1.70;;;25.80;75.20;;;;;;5061198;28;20037;-34
2023/08/13 06:29:04;;;;;;;1.75;1.58;;;25.80;75.10;;;;;;5061799;28;20028;-35
2023/08/13 06:31:30;;;;;;;2.00;1.80;;;25.80;75.20;;;;;;5040294;28;20044;-35
2023/08/13 06:33:56;;;;;;;1.70;1.60;;;25.80;76.00;;;;;;5060909;28;20049;-35
2023/08/13 06:36:22;;;;;;;1.83;1.73;;;25.80;75.30;;;;;;5057023;28;20029;-35
2023/08/13 06:38:48;;;;;;;1.90;1.70;;;25.80;75.30;;;;;;5058380;28;20120;-35
2023/08/13 06:41:15;;;;;;;1.50;1.40;;;25.70;75.20;;;;;;5055112;28;20036;-35
2023/08/13 06:43:41;;;;;;;1.60;1.50;;;25.70;75.90;;;;;;5061676;28;20029;-35
2023/08/13 06:46:07;;;;;;;1.77;1.60;;;25.70;75.20;;;;;;5060836;28;20119;-35
2023/08/13 06:48:33;;;;;;;2.22;1.65;;;25.70;75.30;;;;;;5061854;28;20029;-35
2023/08/13 06:51:00;;;;;;;1.73;1.63;;;25.70;75.30;;;;;;5060953;28;20032;-35
2023/08/13 06:53:26;;;;;;;1.90;1.63;;;25.70;75.30;;;;;;5043808;28;20025;-35
2023/08/13 06:55:52;;;;;;;1.65;1.50;;;25.70;75.20;;;;;;5060350;28;20025;-36
2023/08/13 06:58:18;;;;;;;1.67;1.58;;;25.70;75.30;;;;;;5061614;28;20044;-35
2023/08/13 07:00:46;;;;;;;1.53;1.40;;;25.70;75.30;;;;;;5060169;28;20029;-35
2023/08/13 07:03:12;;;;;;;2.35;1.30;;;25.70;75.30;;;;;;5048209;28;20056;-34
2023/08/13 07:05:39;;;;;;;1.73;1.63;;;25.70;75.30;;;;;;5043457;28;20045;-34
2023/08/13 07:08:06;;;;;;;1.85;1.50;;;25.70;75.30;;;;;;5060736;28;20032;-35
2023/08/13 07:10:32;;;;;;;1.33;1.23;;;25.60;75.40;;;;;;5061816;28;20033;-35
2023/08/13 07:12:58;;;;;;;1.60;1.35;;;25.60;75.30;;;;;;5060470;28;20033;-35
2023/08/13 07:15:25;;;;;;;1.47;1.37;;;25.60;75.40;;;;;;5055705;28;20040;-36
2023/08/13 07:17:51;;;;;;;1.80;1.70;;;25.60;75.50;;;;;;5046833;28;20833;-35
2023/08/13 07:20:17;;;;;;;1.63;1.53;;;25.60;75.50;;;;;;5044434;28;20037;-35
2023/08/13 07:22:45;;;;;;;1.48;1.38;;;25.60;75.40;;;;;;5050657;28;20028;-35
2023/08/13 07:25:11;;;;;;;1.73;1.63;;;25.60;75.50;;;;;;5045265;28;20037;-35
2023/08/13 07:27:39;;;;;;;1.80;1.70;;;25.60;75.40;;;;;;5047241;28;20041;-36
2023/08/13 07:30:07;;;;;;;1.60;1.50;;;25.60;75.50;;;;;;5048078;28;20084;-36
2023/08/13 07:32:35;;;;;;;1.55;1.45;;;25.60;75.50;;;;;;5051740;28;20045;-36
2023/08/13 07:35:01;;;;;;;1.65;1.55;;;25.60;75.50;;;;;;5045820;28;20092;-36
2023/08/13 07:37:28;;;;;;;1.55;1.40;;;25.60;75.40;;;;;;5044384;28;20048;-36
2023/08/13 07:39:55;;;;;;;2.30;1.50;;;25.60;75.50;;;;;;5053912;28;20096;-35
2023/08/13 07:42:22;;;;;;;1.42;1.33;;;25.60;75.60;;;;;;5050300;28;20029;-35
2023/08/13 07:44:48;;;;;;;1.50;1.40;;;25.60;75.50;;;;;;5051645;28;20041;-35
2023/08/13 07:47:14;;;;;;;2.35;1.60;;;25.60;75.60;;;;;;5052001;28;20039;-35
2023/08/13 07:49:40;;;;;;;3.60;1.55;;;25.60;75.60;;;;;;5058226;28;20024;-35
2023/08/13 07:52:06;;;;;;;1.93;1.70;;;25.50;75.50;;;;;;5061602;28;20033;-35
2023/08/13 07:54:33;;;;;;;1.87;1.60;;;25.60;75.70;;;;;;5040087;28;20029;-35
2023/08/13 07:56:59;;;;;;;1.40;1.30;;;25.50;75.60;;;;;;5048565;28;20397;-35
2023/08/13 07:59:25;;;;;;;1.73;1.60;;;25.50;75.60;;;;;;5052953;28;20066;-35
2023/08/13 08:01:51;;;;;;;1.55;1.35;;;25.50;75.60;;;;;;5053314;28;20033;-35
2023/08/13 08:04:17;;;;;;;1.60;1.50;;;25.50;75.70;;;;;;5054142;28;20033;-35
2023/08/13 08:06:43;;;;;;;1.38;1.27;;;25.50;75.60;;;;;;5053941;28;20202;-35
2023/08/13 08:09:10;;;;;;;1.70;1.60;;;25.50;75.70;;;;;;5050394;28;20047;-36
2023/08/13 08:11:36;;;;;;;1.63;1.53;;;25.50;75.60;;;;;;5054109;28;20041;-35
2023/08/13 08:14:02;;;;;;;1.50;1.35;;;25.50;75.60;;;;;;5051179;28;20032;-35
2023/08/13 08:16:28;;;;;;;2.45;1.55;;;25.50;76.40;;;;;;5042944;28;20053;-36
2023/08/13 08:18:55;;;;;;;1.57;1.47;;;25.50;75.70;;;;;;5046330;28;20068;-34
2023/08/13 08:21:21;;;;;;;1.60;1.50;;;25.50;75.60;;;;;;5040806;28;20403;-35
2023/08/13 08:23:47;;;;;;;2.05;1.50;;;25.50;75.70;;;;;;5044248;28;20037;-35
2023/08/13 08:26:13;;;;;;;1.50;1.40;;;25.40;75.60;;;;;;5051677;28;20037;-35
2023/08/13 08:28:39;;;;;;;1.53;1.40;;;25.50;75.70;;;;;;5052540;28;20027;-36
2023/08/13 08:31:05;;;;;;;1.70;1.45;;;25.40;75.70;;;;;;5054528;28;22564;-35
2023/08/13 08:33:32;;;;;;;1.77;1.67;;;25.40;75.70;;;;;;5051488;28;20049;-36
2023/08/13 08:35:58;;;;;;;1.38;1.27;;;25.40;75.70;;;;;;5054603;28;20033;-36
2023/08/13 08:38:24;;;;;;;1.45;1.35;;;25.40;75.70;;;;;;5053079;28;20033;-35
2023/08/13 08:40:52;;;;;;;1.70;1.50;;;25.40;75.80;;;;;;5053317;28;20500;-35
2023/08/13 08:43:18;;;;;;;1.45;1.35;;;25.40;75.80;;;;;;5053313;28;20061;-35
2023/08/13 08:45:45;;;;;;;2.60;1.40;;;25.40;75.80;;;;;;5064732;28;20028;-35
2023/08/13 08:48:11;;;;;;;2.17;1.60;;;25.40;75.90;;;;;;5064999;28;20033;-35
2023/08/13 08:50:38;;;;;;;2.80;1.40;;;25.40;75.80;;;;;;5043844;28;20029;-35
2023/08/13 08:53:04;;;;;;;1.50;1.40;;;25.40;75.90;;;;;;5058412;28;20028;-35
2023/08/13 08:55:33;;;;;;;1.65;1.40;;;25.40;75.80;;;;;;5070931;28;20031;-35
2023/08/13 08:57:59;;;;;;;1.70;1.60;;;25.40;75.80;;;;;;5068780;28;20093;-35
2023/08/13 09:00:25;;;;;;;1.50;1.40;;;25.40;75.90;;;;;;5069495;28;20056;-35
2023/08/13 09:02:51;;;;;;;2.45;1.48;;;25.40;75.90;;;;;;5066169;28;20037;-35
2023/08/13 09:05:18;;;;;;;1.30;1.20;;;25.40;75.90;;;;;;5060255;28;20025;-35
2023/08/13 09:07:44;;;;;;;1.52;1.42;;;25.40;76.00;;;;;;5065498;28;20029;-35
2023/08/13 09:10:10;;;;;;;1.83;1.33;;;25.40;76.00;;;;;;5065056;28;20102;-35
2023/08/13 09:12:37;;;;;;;1.35;1.25;;;25.40;76.10;;;;;;5057855;28;20052;-35
2023/08/13 09:15:08;;;;;;;1.25;1.15;;;25.30;75.90;;;;;;5068765;28;20029;-35
2023/08/13 09:17:34;;;;;;;1.30;1.20;;;25.30;76.00;;;;;;5070839;28;20040;-36
2023/08/13 09:20:07;;;;;;;2.45;1.30;;;25.30;76.00;;;;;;5064810;28;20088;-35
2023/08/13 09:22:34;;;;;;;1.33;1.23;;;25.30;76.00;;;;;;5064983;28;20044;-35
2023/08/13 09:25:03;;;;;;;1.75;1.20;;;25.30;76.00;;;;;;5066413;28;20021;-35
2023/08/13 09:27:30;;;;;;;1.40;1.30;;;25.30;76.00;;;;;;5068184;28;20037;-36
2023/08/13 09:29:58;;;;;;;1.38;1.27;;;25.30;76.00;;;;;;5058131;28;20138;-35
2023/08/13 09:32:26;;;;;;;1.30;1.20;;;25.30;76.00;;;;;;5047107;28;20127;-35
2023/08/13 09:34:55;;;;;;;1.50;1.40;;;25.30;76.10;;;;;;5071636;28;20025;-35
2023/08/13 09:37:24;;;;;;;1.40;1.30;;;25.30;76.00;;;;;;5063218;28;20033;-35
2023/08/13 09:39:50;;;;;;;1.25;1.15;;;25.30;76.00;;;;;;5071705;28;20373;-35
2023/08/13 09:42:16;;;;;;;1.52;1.20;;;25.30;76.00;;;;;;5071564;28;20024;-35
2023/08/13 09:44:42;;;;;;;1.63;1.40;;;25.30;76.10;;;;;;5050077;28;20040;-35
2023/08/13 09:47:08;;;;;;;1.63;1.23;;;25.30;76.10;;;;;;5050199;28;20037;-35
2023/08/13 09:49:35;;;;;;;1.33;0.95;;;25.30;76.20;;;;;;5075152;28;20032;-35
2023/08/13 09:52:04;;;;;;;0.95;0.95;;;25.20;76.00;;;;;;5076809;28;20020;-35
2023/08/13 09:55:03;;;;;;;1.23;1.13;;;25.20;76.10;;;;;;5066522;28;20040;-35
2023/08/13 09:57:30;;;;;;;1.38;1.27;;;25.20;76.20;;;;;;5011476;28;20031;-35
2023/08/13 09:59:56;;;;;;;1.67;1.27;;;25.20;76.10;;;;;;5026410;28;20046;-35
2023/08/13 10:02:22;;;;;;;1.33;1.23;;;25.20;76.80;;;;;;5014527;28;20086;-35
2023/08/13 10:04:48;;;;;;;1.40;1.30;;;25.20;76.20;;;;;;4998862;28;20042;-35
2023/08/13 10:07:15;;;;;;;1.30;1.20;;;25.20;76.10;;;;;;5023006;28;20045;-35
2023/08/13 10:09:41;;;;;;;1.00;1.00;;;25.20;76.20;;;;;;5005575;28;20097;-35
2023/08/13 10:12:09;;;;;;;1.38;1.27;;;25.20;76.20;;;;;;5012894;28;20294;-35
2023/08/13 10:14:35;;;;;;;1.17;1.08;;;25.20;76.20;;;;;;5017367;28;20110;-35
2023/08/13 10:17:04;;;;;;;1.23;1.13;;;25.20;76.20;;;;;;5014371;28;20026;-35
2023/08/13 10:19:31;;;;;;;1.67;1.20;;;25.20;76.10;;;;;;5014692;28;20042;-35
2023/08/13 10:21:57;;;;;;;1.30;1.10;;;25.20;76.30;;;;;;5013512;28;20033;-35
2023/08/13 10:24:23;;;;;;;1.23;1.13;;;25.20;76.30;;;;;;4996715;28;20097;-34
2023/08/13 10:26:50;;;;;;;0.90;0.90;;;25.20;76.20;;;;;;5013225;28;20074;-36
2023/08/13 10:29:20;;;;;;;1.10;1.00;;;25.20;76.40;;;;;;4998533;28;20314;-35
2023/08/13 10:31:58;;;;;;;1.23;1.13;;;25.20;76.40;;;;;;5013379;28;20099;-35
2023/08/13 10:34:44;;;;;;;1.10;1.00;;;25.10;76.30;;;;;;5050315;28;20033;-35
2023/08/13 10:37:17;;;;;;;1.00;0.90;;;25.20;76.50;;;;;;5048034;28;20025;-35
2023/08/13 10:39:45;;;;;;;1.08;1.08;;;25.10;76.30;;;;;;5052760;28;20021;-35
2023/08/13 10:42:31;;;;;;;0.90;0.90;;;25.10;76.40;;;;;;5051645;28;20084;-35
2023/08/13 10:45:04;;;;;;;1.17;1.08;;;25.10;76.40;;;;;;5052261;28;20148;-35
2023/08/13 10:47:46;;;;;;;0.77;0.77;;;25.10;76.40;;;;;;5052875;28;20029;-35
2023/08/13 10:50:21;;;;;;;0.98;0.90;;;25.10;76.40;;;;;;5056136;28;20090;-35
2023/08/13 10:53:10;;;;;;;1.00;1.00;;;25.10;76.40;;;;;;5072892;28;20026;-35
2023/08/13 10:55:41;;;;;;;1.00;1.00;;;25.10;76.40;;;;;;5062901;28;20039;-35
2023/08/13 10:58:08;;;;;;;1.10;1.00;;;25.10;76.40;;;;;;5063813;28;20032;-35
2023/08/13 11:00:43;;;;;;;;;;;25.10;76.40;;;;;;5056806;28;20100;-35
2023/08/13 11:03:23;;;;;;;1.20;0.95;;;25.10;76.40;;;;;;5071082;28;19916;-35
2023/08/13 11:05:50;;;;;;;1.00;0.90;;;25.10;76.40;;;;;;5062816;28;20041;-35
2023/08/13 11:08:24;;;;;;;1.00;0.88;;;25.10;76.50;;;;;;5080808;28;20024;-35
2023/08/13 11:10:51;;;;;;;1.20;1.00;;;25.10;76.40;;;;;;5040477;28;20033;-35
2023/08/13 11:13:18;;;;;;;0.85;0.85;;;25.10;76.50;;;;;;5055956;28;20084;-35
2023/08/13 11:15:51;;;;;;;1.30;0.90;;;25.10;76.50;;;;;;5062198;28;20094;-34
2023/08/13 11:18:17;;;;;;;0.90;0.90;;;25.00;76.50;;;;;;5074769;28;20033;-35
2023/08/13 11:20:44;;;;;;;0.90;0.90;;;25.00;76.50;;;;;;5066541;28;20036;-35
2023/08/13 11:23:14;;;;;;;1.15;1.05;;;25.00;76.40;;;;;;5044828;28;20025;-34
2023/08/13 11:25:41;;;;;;;0.73;0.73;;;25.00;76.50;;;;;;5053792;28;20043;-34
2023/08/13 11:28:07;;;;;;;1.15;1.00;;;25.00;76.50;;;;;;5069295;28;20561;-35
2023/08/13 11:30:33;;;;;;;0.95;0.90;;;25.00;76.40;;;;;;5044874;28;20044;-34
2023/08/13 11:33:01;;;;;;;1.35;1.00;;;25.00;76.60;;;;;;5061187;28;20050;-34
2023/08/13 11:35:27;;;;;;;1.05;0.85;;;25.00;76.60;;;;;;5076518;28;20024;-35
2023/08/13 11:37:53;;;;;;;1.00;0.90;;;25.00;76.50;;;;;;5060962;28;20070;-34
2023/08/13 11:40:19;;;;;;;0.73;0.73;;;25.00;76.50;;;;;;5060809;28;20049;-35
2023/08/13 11:42:56;;;;;;;2.00;0.80;;;25.00;76.50;;;;;;5030932;28;20120;-35
2023/08/13 11:45:23;;;;;;;1.00;0.90;;;25.00;76.50;;;;;;5071540;28;20032;-35
2023/08/13 11:47:50;;;;;;;0.73;0.73;;;25.00;76.50;;;;;;5070139;28;20032;-35
2023/08/13 11:50:23;;;;;;;0.80;0.80;;;25.00;76.50;;;;;;5074744;28;20021;-34
2023/08/13 11:53:09;;;;;;;0.80;0.80;;;25.00;76.60;;;;;;5070886;28;20040;-35
2023/08/13 11:55:35;;;;;;;0.93;0.80;;;25.00;76.60;;;;;;5036301;28;20025;-35
2023/08/13 11:58:01;;;;;;;0.85;0.80;;;25.00;76.60;;;;;;5035133;28;20026;-35
2023/08/13 12:00:27;;;;;;;0.90;0.90;;;25.00;76.70;;;;;;5032623;28;20040;-35
2023/08/13 12:02:56;;;;;;;1.00;1.00;;;25.00;76.70;;;;;;5035122;28;20054;-35
2023/08/13 12:05:26;;;;;;;0.90;0.90;;;24.90;76.70;;;;;;5048862;28;20092;-36
2023/08/13 12:07:53;;;;;;;1.00;0.90;;;24.90;76.70;;;;;;5033166;28;20037;-35
2023/08/13 12:10:19;;;;;;;1.55;0.93;;;24.90;76.70;;;;;;5048259;28;20048;-35
2023/08/13 12:12:45;;;;;;;1.00;0.80;;;24.90;76.80;;;;;;5045381;28;20193;-35
2023/08/13 12:15:11;;;;;;;0.80;0.80;;;24.90;76.70;;;;;;5049698;28;20049;-36
2023/08/13 12:17:37;;;;;;;0.95;0.82;;;24.90;76.70;;;;;;5047498;28;20037;-35
2023/08/13 12:20:04;;;;;;;2.10;0.90;;;24.90;76.70;;;;;;5050665;28;20027;-35
2023/08/13 12:22:30;;;;;;;0.90;0.80;;;24.90;76.60;;;;;;5049283;28;20025;-35
2023/08/13 12:24:56;;;;;;;0.80;0.80;;;24.90;76.70;;;;;;5053544;28;20041;-35
2023/08/13 12:27:22;;;;;;;0.90;0.90;;;24.90;76.70;;;;;;5074407;28;20048;-35
2023/08/13 12:29:48;;;;;;;1.10;0.90;;;24.90;76.60;;;;;;5074245;28;20032;-35
2023/08/13 12:32:14;;;;;;;0.90;0.90;;;24.90;76.70;;;;;;5072025;28;20159;-35
2023/08/13 12:34:40;;;;;;;0.85;0.77;;;24.90;76.70;;;;;;5076955;28;20112;-36
2023/08/13 12:37:07;;;;;;;0.70;0.70;;;24.90;76.70;;;;;;5066017;28;20130;-35
2023/08/13 12:39:33;;;;;;;0.80;0.80;;;24.90;76.80;;;;;;5058500;28;20048;-35
2023/08/13 12:41:59;;;;;;;1.17;1.00;;;24.90;76.90;;;;;;5055654;28;20038;-36
2023/08/13 12:44:25;;;;;;;1.75;0.90;;;24.90;76.80;;;;;;5057748;28;20040;-35
2023/08/13 12:46:51;;;;;;;0.90;0.80;;;24.90;76.90;;;;;;5052193;28;20072;-36
2023/08/13 12:49:17;;;;;;;1.13;1.08;;;24.90;76.90;;;;;;5051838;28;20037;-35